createdAt,value
2019-01-26T00:01:00.933Z,82.05
2019-01-26T00:03:30.430Z,82.11
2019-01-26T00:06:00.041Z,82.92
2019-01-26T00:08:29.351Z,83.07
2019-01-26T00:10:59.091Z,82.93
2019-01-26T00:13:30.091Z,82.71
2019-01-26T00:15:59.869Z,82.67
2019-01-26T00:18:30.955Z,82.73
2019-01-26T00:20:59.582Z,82.45
2019-01-26T00:23:29.039Z,83.11
2019-01-26T00:25:58.671Z,82.81
2019-01-26T00:28:28.308Z,83.28
2019-01-26T00:31:04.309Z,82.94
2019-01-26T00:33:35.147Z,82.75
2019-01-26T00:36:04.736Z,82.39
2019-01-26T00:38:34.470Z,82.62
2019-01-26T00:41:04.039Z,82.06
2019-01-26T00:43:33.581Z,82.33
2019-01-26T00:46:04.731Z,81.96
2019-01-26T00:48:34.446Z,81.70
2019-01-26T00:51:04.218Z,82.47
2019-01-26T00:53:33.927Z,82.11
2019-01-26T00:56:03.374Z,82.24
2019-01-26T00:58:33.046Z,82.75
2019-01-26T01:01:02.752Z,83.12
2019-01-26T01:03:32.402Z,83.17
2019-01-26T01:06:02.220Z,83.11
2019-01-26T01:08:31.858Z,83.05
2019-01-26T01:11:01.635Z,83.28
2019-01-26T01:13:31.256Z,83.60
2019-01-26T01:16:01.013Z,83.14
2019-01-26T01:18:30.563Z,83.12
2019-01-26T01:21:01.733Z,83.33
2019-01-26T01:23:30.073Z,83.01
2019-01-26T01:25:59.691Z,83.62
2019-01-26T01:28:29.427Z,83.46
2019-01-26T01:30:59.054Z,82.83
2019-01-26T01:33:28.520Z,83.29
2019-01-26T01:35:58.020Z,82.81
2019-01-26T01:38:27.585Z,83.17
2019-01-26T01:40:57.159Z,83.39
2019-01-26T01:43:26.763Z,83.28
2019-01-26T01:45:56.531Z,83.30
2019-01-26T01:48:26.194Z,82.74
2019-01-26T01:50:55.580Z,82.54
2019-01-26T01:53:25.594Z,82.77
2019-01-26T01:55:55.147Z,82.83
2019-01-26T01:58:25.039Z,82.32
2019-01-26T02:00:54.620Z,82.26
2019-01-26T02:03:24.229Z,82.45
2019-01-26T02:05:53.752Z,82.57
2019-01-26T02:08:23.231Z,82.53
2019-01-26T02:10:52.687Z,82.79
2019-01-26T02:13:22.467Z,82.17
2019-01-26T02:15:51.952Z,82.77
2019-01-26T02:18:21.887Z,82.67
2019-01-26T02:20:51.196Z,82.76
2019-01-26T02:23:20.878Z,82.33
2019-01-26T02:25:50.438Z,82.34
2019-01-26T02:28:20.013Z,82.80
2019-01-26T02:30:49.604Z,82.42
2019-01-26T02:33:19.354Z,82.29
2019-01-26T02:35:49.059Z,82.78
2019-01-26T02:38:18.528Z,82.14
2019-01-26T02:40:48.715Z,82.55
2019-01-26T02:43:18.220Z,82.29
2019-01-26T02:45:47.891Z,82.17
2019-01-26T02:48:17.850Z,82.22
2019-01-26T02:50:47.267Z,82.27
2019-01-26T02:53:16.751Z,82.11
2019-01-26T02:55:46.447Z,82.12
2019-01-26T02:58:16.118Z,82.40
2019-01-26T03:00:45.633Z,81.82
2019-01-26T03:03:15.268Z,82.28
2019-01-26T03:05:44.867Z,82.38
2019-01-26T03:08:14.561Z,82.08
2019-01-26T03:10:44.126Z,82.15
2019-01-26T03:13:13.839Z,82.19
2019-01-26T03:15:43.583Z,81.68
2019-01-26T03:18:13.259Z,82.06
2019-01-26T03:20:42.792Z,81.79
2019-01-26T03:23:12.523Z,82.40
2019-01-26T03:25:42.416Z,82.47
2019-01-26T03:28:11.921Z,82.73
2019-01-26T03:30:41.331Z,82.75
2019-01-26T03:33:11.003Z,82.70
2019-01-26T03:35:40.499Z,83.08
2019-01-26T03:38:10.105Z,82.34
2019-01-26T03:40:39.654Z,82.26
2019-01-26T03:43:09.309Z,81.85
2019-01-26T03:45:38.971Z,81.80
2019-01-26T03:48:09.227Z,82.39
2019-01-26T03:50:38.834Z,82.61
2019-01-26T03:53:08.720Z,82.23
2019-01-26T03:55:38.509Z,81.72
2019-01-26T03:58:08.329Z,82.06
2019-01-26T04:00:38.025Z,82.50
2019-01-26T04:03:07.665Z,81.99
2019-01-26T04:05:37.308Z,81.25
2019-01-26T04:08:06.937Z,81.51
2019-01-26T04:10:36.536Z,81.21
2019-01-26T04:13:06.023Z,81.96
2019-01-26T04:15:35.740Z,81.74
2019-01-26T04:18:05.431Z,81.64
2019-01-26T04:20:34.947Z,81.54
2019-01-26T04:23:04.796Z,81.46
2019-01-26T04:25:34.491Z,81.70
2019-01-26T04:28:04.097Z,82.03
2019-01-26T04:30:33.719Z,81.12
2019-01-26T04:33:03.420Z,80.90
2019-01-26T04:35:33.006Z,81.14
2019-01-26T04:38:02.762Z,80.44
2019-01-26T04:40:32.968Z,80.38
2019-01-26T04:43:02.550Z,81.47
2019-01-26T04:45:32.297Z,80.36
2019-01-26T04:48:01.838Z,81.04
2019-01-26T04:50:31.552Z,80.69
2019-01-26T04:53:01.100Z,80.05
2019-01-26T04:55:30.568Z,80.06
2019-01-26T04:58:00.286Z,80.16
2019-01-26T05:00:30.020Z,80.35
2019-01-26T05:02:59.626Z,79.84
2019-01-26T05:05:29.327Z,80.48
2019-01-26T05:07:58.990Z,80.12
2019-01-26T05:10:28.631Z,79.06
2019-01-26T05:12:58.256Z,79.02
2019-01-26T05:15:27.970Z,78.15
2019-01-26T05:17:57.504Z,78.48
2019-01-26T05:20:27.389Z,78.32
2019-01-26T05:22:57.030Z,78.58
2019-01-26T05:25:26.576Z,78.71
2019-01-26T05:27:56.297Z,77.81
2019-01-26T05:30:27.770Z,78.11
2019-01-26T05:32:57.261Z,77.64
2019-01-26T05:35:27.428Z,78.33
2019-01-26T05:37:57.175Z,78.29
2019-01-26T05:40:26.815Z,77.84
2019-01-26T05:42:56.528Z,77.33
2019-01-26T05:45:26.166Z,77.73
2019-01-26T05:47:55.887Z,77.06
2019-01-26T05:50:26.567Z,77.24
2019-01-26T05:52:56.074Z,76.67
2019-01-26T05:55:25.729Z,76.74
2019-01-26T05:57:55.626Z,76.67
2019-01-26T06:00:29.104Z,76.62
2019-01-26T06:02:58.878Z,77.51
2019-01-26T06:05:28.503Z,76.62
2019-01-26T06:07:58.151Z,75.97
2019-01-26T06:10:27.981Z,76.76
2019-01-26T06:12:58.882Z,76.99
2019-01-26T06:15:27.398Z,76.60
2019-01-26T06:17:57.342Z,76.85
2019-01-26T06:20:26.865Z,75.99
2019-01-26T06:22:56.600Z,76.02
2019-01-26T06:25:26.302Z,76.02
2019-01-26T06:27:55.975Z,76.01
2019-01-26T06:30:26.652Z,76.35
2019-01-26T06:32:56.355Z,76.26
2019-01-26T06:35:26.132Z,76.29
2019-01-26T06:37:55.736Z,76.18
2019-01-26T06:40:25.260Z,76.06
2019-01-26T06:42:55.039Z,76.79
2019-01-26T06:45:24.799Z,76.06
2019-01-26T06:47:54.306Z,75.85
2019-01-26T06:50:26.714Z,75.99
2019-01-26T06:52:56.307Z,76.33
2019-01-26T06:55:26.045Z,75.99
2019-01-26T06:57:55.881Z,76.59
2019-01-26T07:00:29.747Z,75.91
2019-01-26T07:02:59.513Z,75.64
2019-01-26T07:05:38.111Z,76.62
2019-01-26T07:08:08.023Z,76.14
2019-01-26T07:10:37.564Z,76.93
2019-01-26T07:13:07.312Z,76.52
2019-01-26T07:15:36.736Z,76.75
2019-01-26T07:18:09.587Z,76.24
2019-01-26T07:20:36.258Z,76.81
2019-01-26T07:23:06.040Z,76.81
2019-01-26T07:25:35.624Z,77.25
2019-01-26T07:28:05.135Z,77.68
2019-01-26T07:30:34.895Z,76.56
2019-01-26T07:33:04.706Z,76.35
2019-01-26T07:35:34.423Z,76.77
2019-01-26T07:38:04.233Z,77.75
2019-01-26T07:40:34.028Z,77.03
2019-01-26T07:43:03.507Z,76.56
2019-01-26T07:45:33.347Z,77.58
2019-01-26T07:48:02.851Z,77.28
2019-01-26T07:50:32.431Z,77.69
2019-01-26T07:53:02.171Z,77.25
2019-01-26T07:55:31.780Z,78.16
2019-01-26T07:58:01.345Z,77.00
2019-01-26T08:00:30.999Z,77.45
2019-01-26T08:03:00.604Z,77.60
2019-01-26T08:05:30.173Z,78.64
2019-01-26T08:07:59.722Z,78.50
2019-01-26T08:10:29.399Z,77.90
2019-01-26T08:12:58.940Z,77.76
2019-01-26T08:15:32.215Z,78.36
2019-01-26T08:18:01.923Z,78.19
2019-01-26T08:20:31.640Z,78.69
2019-01-26T08:23:01.151Z,78.71
2019-01-26T08:25:30.930Z,78.76
2019-01-26T08:28:00.619Z,78.54
2019-01-26T08:30:30.156Z,77.96
2019-01-26T08:32:59.871Z,77.42
2019-01-26T08:35:29.585Z,77.80
2019-01-26T08:37:59.435Z,77.89
2019-01-26T08:40:29.175Z,78.58
2019-01-26T08:42:58.771Z,77.97
2019-01-26T08:45:28.451Z,78.77
2019-01-26T08:47:58.015Z,78.65
2019-01-26T08:50:27.668Z,78.94
2019-01-26T08:52:58.995Z,78.74
2019-01-26T08:55:28.406Z,78.71
2019-01-26T08:57:58.032Z,77.81
2019-01-26T09:00:28.536Z,78.17
2019-01-26T09:05:06.021Z,78.18
2019-01-26T09:07:35.884Z,78.26
2019-01-26T09:10:05.696Z,77.85
2019-01-26T09:12:35.162Z,77.77
2019-01-26T09:15:05.123Z,78.46
2019-01-26T09:17:34.689Z,79.15
2019-01-26T09:20:04.370Z,77.55
2019-01-26T09:22:34.049Z,77.27
2019-01-26T09:25:03.952Z,77.13
2019-01-26T09:27:33.669Z,77.40
2019-01-26T09:30:03.412Z,77.94
2019-01-26T09:32:32.845Z,76.49
2019-01-26T09:35:02.483Z,75.29
2019-01-26T09:37:32.415Z,75.81
2019-01-26T09:40:01.884Z,75.20
2019-01-26T09:42:31.685Z,74.99
2019-01-26T09:45:01.343Z,74.36
2019-01-26T09:47:30.909Z,74.39
2019-01-26T09:50:00.415Z,74.19
2019-01-26T09:52:30.177Z,74.03
2019-01-26T09:54:59.948Z,73.16
2019-01-26T09:57:29.587Z,74.32
2019-01-26T09:59:59.321Z,73.80
2019-01-26T10:02:28.950Z,73.75
2019-01-26T10:04:58.467Z,74.89
2019-01-26T10:07:28.374Z,73.85
2019-01-26T10:09:58.095Z,74.26
2019-01-26T10:12:27.655Z,73.62
2019-01-26T10:14:57.450Z,73.21
2019-01-26T10:17:26.917Z,73.44
2019-01-26T10:19:56.540Z,74.22
2019-01-26T10:22:26.063Z,73.72
2019-01-26T10:24:55.433Z,74.92
2019-01-26T10:27:24.916Z,74.75
2019-01-26T10:29:54.599Z,73.76
2019-01-26T10:32:24.340Z,73.01
2019-01-26T10:34:53.868Z,72.87
2019-01-26T10:37:25.624Z,72.95
2019-01-26T10:39:55.279Z,72.66
2019-01-26T10:42:27.305Z,71.68
2019-01-26T10:44:57.101Z,72.70
2019-01-26T10:47:26.663Z,73.08
2019-01-26T10:49:56.254Z,73.07
2019-01-26T10:52:25.951Z,73.17
2019-01-26T10:54:55.651Z,72.40
2019-01-26T10:57:25.179Z,72.10
2019-01-26T10:59:54.774Z,73.28
2019-01-26T11:02:24.387Z,72.94
2019-01-26T11:04:54.408Z,72.82
2019-01-26T11:07:24.093Z,72.78
2019-01-26T11:09:53.668Z,72.77
2019-01-26T11:12:23.135Z,73.65
2019-01-26T11:14:52.838Z,72.86
2019-01-26T11:17:22.431Z,72.47
2019-01-26T11:19:52.177Z,72.99
2019-01-26T11:22:21.870Z,72.78
2019-01-26T11:24:51.579Z,72.83
2019-01-26T11:27:21.212Z,73.70
2019-01-26T11:29:51.131Z,71.98
2019-01-26T11:32:20.690Z,73.81
2019-01-26T11:34:50.398Z,73.80
2019-01-26T11:37:20.064Z,72.68
2019-01-26T11:39:53.767Z,73.18
2019-01-26T11:42:23.440Z,73.01
2019-01-26T11:44:58.076Z,72.90
2019-01-26T11:47:27.574Z,73.07
2019-01-26T11:49:59.221Z,73.07
2019-01-26T11:52:28.829Z,72.58
2019-01-26T11:55:14.007Z,73.30
2019-01-26T11:57:43.619Z,73.42
2019-01-26T12:00:29.131Z,72.97
2019-01-26T12:03:09.928Z,72.67
2019-01-26T12:05:44.785Z,72.73
2019-01-26T12:08:14.537Z,72.33
2019-01-26T12:10:44.023Z,73.21
2019-01-26T12:13:14.069Z,72.73
2019-01-26T12:15:43.583Z,73.03
2019-01-26T12:18:13.243Z,72.47
2019-01-26T12:20:42.900Z,73.46
2019-01-26T12:23:12.598Z,73.52
2019-01-26T12:25:42.266Z,73.52
2019-01-26T12:28:12.183Z,73.21
2019-01-26T12:30:41.786Z,73.47
2019-01-26T12:33:11.313Z,72.64
2019-01-26T12:35:41.056Z,73.02
2019-01-26T12:38:10.522Z,73.23
2019-01-26T12:40:40.231Z,72.95
2019-01-26T12:43:09.884Z,73.02
2019-01-26T12:45:39.279Z,72.41
2019-01-26T12:48:08.604Z,72.57
2019-01-26T12:50:38.344Z,72.19
2019-01-26T12:53:07.804Z,71.96
2019-01-26T12:55:38.893Z,72.03
2019-01-26T12:58:08.597Z,72.52
2019-01-26T13:00:38.167Z,72.62
2019-01-26T13:03:07.827Z,71.85
2019-01-26T13:05:37.443Z,72.46
2019-01-26T13:08:06.984Z,71.96
2019-01-26T13:10:39.858Z,72.16
2019-01-26T13:13:09.422Z,71.07
2019-01-26T13:15:39.513Z,71.93
2019-01-26T13:18:09.127Z,71.81
2019-01-26T13:20:38.618Z,72.47
2019-01-26T13:23:08.384Z,73.05
2019-01-26T13:25:38.124Z,72.63
2019-01-26T13:28:07.641Z,72.63
2019-01-26T13:30:37.309Z,73.17
2019-01-26T13:33:06.972Z,72.72
2019-01-26T13:35:36.739Z,73.00
2019-01-26T13:38:06.407Z,72.82
2019-01-26T13:40:36.284Z,73.36
2019-01-26T13:43:05.977Z,73.95
2019-01-26T13:45:35.703Z,73.37
2019-01-26T13:48:05.451Z,73.02
2019-01-26T13:50:35.224Z,73.17
2019-01-26T13:53:05.148Z,73.50
2019-01-26T13:55:35.077Z,72.53
2019-01-26T13:58:06.225Z,72.62
2019-01-26T14:00:35.632Z,72.96
2019-01-26T14:03:05.403Z,73.80
2019-01-26T14:05:35.025Z,74.83
2019-01-26T14:08:04.610Z,72.49
2019-01-26T14:10:34.410Z,72.69
2019-01-26T14:13:04.195Z,72.71
2019-01-26T14:15:33.768Z,73.02
2019-01-26T14:18:03.435Z,72.58
2019-01-26T14:20:33.189Z,72.64
2019-01-26T14:23:02.919Z,72.66
2019-01-26T14:25:32.635Z,72.64
2019-01-26T14:28:02.344Z,72.07
2019-01-26T14:30:35.948Z,72.75
2019-01-26T14:33:05.855Z,72.60
2019-01-26T14:35:35.560Z,72.76
2019-01-26T14:38:10.630Z,73.21
2019-01-26T14:40:40.383Z,72.61
2019-01-26T14:43:10.099Z,72.59
2019-01-26T14:45:39.637Z,73.60
2019-01-26T14:48:09.293Z,73.40
2019-01-26T14:50:38.907Z,73.59
2019-01-26T14:53:08.911Z,73.77
2019-01-26T14:55:38.955Z,74.47
2019-01-26T14:58:10.591Z,74.48
2019-01-26T15:00:40.336Z,74.61
2019-01-26T15:03:09.924Z,74.87
2019-01-26T15:05:39.588Z,74.73
2019-01-26T15:08:09.284Z,74.75
2019-01-26T15:10:39.058Z,74.30
2019-01-26T15:13:08.800Z,74.82
2019-01-26T15:15:38.488Z,74.97
2019-01-26T15:18:08.372Z,74.43
2019-01-26T15:20:39.743Z,75.23
2019-01-26T15:23:09.605Z,74.93
2019-01-26T15:25:39.066Z,75.02
2019-01-26T15:28:08.810Z,75.30
2019-01-26T15:30:40.438Z,74.79
2019-01-26T15:33:11.189Z,75.41
2019-01-26T15:35:40.005Z,75.29
2019-01-26T15:38:10.819Z,75.15
2019-01-26T15:40:40.580Z,75.06
2019-01-26T15:46:07.906Z,74.84
2019-01-26T15:48:37.330Z,75.18
2019-01-26T15:51:07.062Z,75.35
2019-01-26T15:53:36.735Z,75.16
2019-01-26T15:56:06.475Z,74.90
2019-01-26T15:58:36.010Z,75.27
2019-01-26T16:01:07.328Z,75.00
2019-01-26T16:03:36.934Z,74.91
2019-01-26T16:06:06.829Z,75.62
2019-01-26T16:08:36.771Z,75.33
2019-01-26T16:11:06.400Z,75.14
2019-01-26T16:13:35.998Z,75.20
2019-01-26T16:16:05.654Z,75.43
2019-01-26T16:18:35.568Z,75.85
2019-01-26T16:21:05.277Z,75.71
2019-01-26T16:23:35.022Z,74.95
2019-01-26T16:26:04.497Z,75.91
2019-01-26T16:28:34.147Z,75.58
2019-01-26T16:31:03.839Z,75.23
2019-01-26T16:33:33.615Z,75.44
2019-01-26T16:36:03.107Z,75.33
2019-01-26T16:38:32.920Z,75.50
2019-01-26T16:41:02.646Z,76.92
2019-01-26T16:43:32.385Z,79.30
2019-01-26T16:46:01.995Z,76.72
2019-01-26T16:48:31.835Z,70.45
2019-01-26T16:51:01.575Z,65.28
2019-01-26T16:53:31.409Z,79.20
2019-01-26T16:56:01.064Z,78.97
2019-01-26T16:58:30.692Z,80.20
2019-01-26T17:01:01.349Z,81.48
2019-01-26T17:03:30.832Z,83.54
2019-01-26T17:06:00.429Z,85.47
2019-01-26T17:08:30.353Z,83.36
2019-01-26T17:10:59.943Z,82.40
2019-01-26T17:13:29.676Z,78.40
2019-01-26T17:15:59.466Z,85.74
2019-01-26T17:18:28.976Z,87.00
2019-01-26T17:20:58.595Z,81.12
2019-01-26T17:23:28.263Z,75.10
2019-01-26T17:25:57.929Z,69.22
2019-01-26T17:28:27.407Z,71.43
2019-01-26T17:30:56.731Z,77.01
2019-01-26T17:33:26.632Z,80.36
2019-01-26T17:35:56.329Z,74.98
2019-01-26T17:38:26.112Z,69.13
2019-01-26T17:40:55.481Z,60.70
2019-01-26T17:43:24.945Z,71.38
2019-01-26T17:45:54.482Z,62.73
2019-01-26T17:48:24.185Z,65.40
2019-01-26T17:50:53.912Z,65.62
2019-01-26T17:53:23.401Z,67.37
2019-01-26T17:55:52.908Z,51.79
2019-01-26T17:58:22.660Z,48.60
2019-01-26T18:00:56.498Z,51.83
2019-01-26T18:03:26.328Z,54.43
2019-01-26T18:05:55.947Z,51.82
2019-01-26T18:08:25.647Z,53.69
2019-01-26T18:10:55.364Z,52.40
2019-01-26T18:13:25.065Z,51.64
2019-01-26T18:15:54.638Z,53.62
2019-01-26T18:18:24.301Z,57.52
2019-01-26T18:20:53.890Z,60.68
2019-01-26T18:23:31.511Z,63.13
2019-01-26T18:26:01.147Z,65.79
2019-01-26T18:28:30.654Z,66.73
2019-01-26T18:31:00.493Z,66.78
2019-01-26T18:33:30.356Z,67.67
2019-01-26T18:35:59.835Z,68.71
2019-01-26T18:38:29.256Z,69.47
2019-01-26T18:40:58.954Z,69.97
2019-01-26T18:43:28.565Z,71.00
2019-01-26T18:45:58.119Z,71.85
2019-01-26T18:48:27.723Z,71.00
2019-01-26T18:50:57.299Z,71.91
2019-01-26T18:53:27.752Z,72.05
2019-01-26T18:55:57.344Z,71.87
2019-01-26T18:58:26.827Z,72.23
2019-01-26T19:00:56.584Z,73.19
2019-01-26T19:03:33.420Z,72.95
2019-01-26T19:06:03.285Z,72.76
2019-01-26T19:08:32.840Z,73.24
2019-01-26T19:11:02.420Z,72.56
2019-01-26T19:13:32.414Z,71.90
2019-01-26T19:16:02.086Z,72.62
2019-01-26T19:18:31.854Z,72.50
2019-01-26T19:21:03.263Z,71.82
2019-01-26T19:23:32.160Z,71.45
2019-01-26T19:26:01.835Z,71.31
2019-01-26T19:28:31.584Z,71.42
2019-01-26T19:31:01.104Z,71.61
2019-01-26T19:33:30.866Z,71.06
2019-01-26T19:36:00.804Z,71.55
2019-01-26T19:38:30.292Z,71.44
2019-01-26T19:40:59.798Z,71.11
2019-01-26T19:43:29.431Z,70.89
2019-01-26T19:45:58.758Z,70.62
2019-01-26T19:48:28.255Z,70.79
2019-01-26T19:50:57.839Z,71.03
2019-01-26T19:53:27.553Z,70.47
2019-01-26T19:55:57.083Z,70.86
2019-01-26T19:58:26.767Z,71.37
2019-01-26T20:00:56.198Z,70.72
2019-01-26T20:03:25.800Z,71.11
2019-01-26T20:05:55.319Z,71.78
2019-01-26T20:08:25.059Z,71.26
2019-01-26T20:10:54.663Z,70.80
2019-01-26T20:13:24.541Z,71.32
2019-01-26T20:15:54.064Z,71.40
2019-01-26T20:18:24.017Z,70.70
2019-01-26T20:20:53.709Z,70.62
2019-01-26T20:23:23.242Z,70.83
2019-01-26T20:25:52.640Z,70.85
2019-01-26T20:28:22.537Z,70.68
2019-01-26T20:30:52.163Z,71.44
2019-01-26T20:33:21.733Z,71.34
2019-01-26T20:35:51.210Z,71.26
2019-01-26T20:38:20.782Z,71.33
2019-01-26T20:40:50.495Z,71.11
2019-01-26T20:43:20.152Z,71.17
2019-01-26T20:45:49.712Z,71.85
2019-01-26T20:48:19.372Z,71.19
2019-01-26T20:50:49.137Z,71.87
2019-01-26T20:53:18.615Z,71.24
2019-01-26T20:55:48.398Z,71.32
2019-01-26T20:58:18.063Z,71.70
2019-01-26T21:00:48.003Z,71.79
2019-01-26T21:03:18.057Z,72.12
2019-01-26T21:05:47.791Z,71.64
2019-01-26T21:08:17.428Z,71.91
2019-01-26T21:10:47.099Z,72.18
2019-01-26T21:13:16.821Z,72.42
2019-01-26T21:15:46.439Z,72.14
2019-01-26T21:18:16.190Z,71.74
2019-01-26T21:20:46.732Z,72.48
2019-01-26T21:23:18.899Z,72.52
2019-01-26T21:25:48.684Z,73.12
2019-01-26T21:28:18.371Z,73.16
2019-01-26T21:30:47.984Z,72.36
2019-01-26T21:33:17.556Z,73.05
2019-01-26T21:35:47.221Z,72.20
2019-01-26T21:38:16.906Z,72.97
2019-01-26T21:40:46.845Z,72.77
2019-01-26T21:43:16.544Z,71.97
2019-01-26T21:45:46.288Z,72.60
2019-01-26T21:48:15.995Z,72.82
2019-01-26T21:50:45.459Z,71.84
2019-01-26T21:53:15.060Z,72.80
2019-01-26T21:55:44.704Z,71.93
2019-01-26T21:58:14.268Z,71.69
2019-01-26T22:00:43.813Z,72.43
2019-01-26T22:03:13.550Z,72.18
2019-01-26T22:05:43.107Z,72.97
2019-01-26T22:08:12.889Z,72.38
2019-01-26T22:10:42.375Z,72.73
2019-01-26T22:13:11.931Z,72.51
2019-01-26T22:15:41.469Z,72.76
2019-01-26T22:18:11.194Z,73.34
2019-01-26T22:20:40.765Z,73.22
2019-01-26T22:23:10.363Z,73.59
2019-01-26T22:25:40.295Z,73.07
2019-01-26T22:28:09.995Z,73.39
2019-01-26T22:30:39.713Z,73.60
2019-01-26T22:33:09.322Z,73.79
2019-01-26T22:35:39.052Z,73.32
2019-01-26T22:38:08.848Z,74.27
2019-01-26T22:40:38.651Z,73.31
2019-01-26T22:43:08.391Z,73.39
2019-01-26T22:45:38.162Z,73.48
2019-01-26T22:48:07.954Z,74.23
2019-01-26T22:50:37.531Z,73.50
2019-01-26T22:53:07.175Z,74.38
2019-01-26T22:55:37.119Z,73.70
2019-01-26T22:58:07.140Z,73.67
2019-01-26T23:01:18.319Z,73.88
2019-01-26T23:06:03.495Z,73.53
2019-01-26T23:08:33.436Z,74.56
2019-01-26T23:11:11.066Z,74.00
2019-01-26T23:14:10.699Z,74.47
2019-01-26T23:18:54.627Z,74.10
2019-01-26T23:21:35.071Z,74.34
2019-01-26T23:24:43.303Z,74.62
2019-01-26T23:27:31.645Z,74.52
2019-01-26T23:31:15.147Z,74.49
2019-01-26T23:33:45.383Z,75.49
2019-01-26T23:36:15.395Z,75.04
2019-01-26T23:38:45.155Z,75.20
2019-01-26T23:41:15.006Z,75.37
2019-01-26T23:43:44.730Z,75.27
2019-01-26T23:46:14.283Z,74.85
2019-01-26T23:48:44.013Z,75.75
2019-01-26T23:51:13.731Z,75.24
2019-01-26T23:53:43.392Z,75.19
2019-01-26T23:56:13.311Z,75.48
2019-01-26T23:58:42.996Z,75.18
